Time;durP1;ratioP1;P1;durP2;ratioP2;P2;SDS_P1;SDS_P2;PMS_P1;PMS_P2;Temp;Humidity;BMP_temperature;BMP_pressure;BME280_temperature;BME280_humidity;BME280_pressure;Samples;Min_cycle;Max_cycle;Signal;HPM_P1;HPM_P2
2021/07/03 00:01:56;;;;;;;10.95;7.68;;;;;;;-144.13;100.00;64086.75;5045455;28;20030;-83
2021/07/03 00:04:22;;;;;;;12.70;7.65;;;;;;;-144.13;100.00;64086.75;5041404;28;20089;-82
2021/07/03 00:06:48;;;;;;;14.30;8.05;;;;;;;-144.13;100.00;64086.75;5055509;28;20055;-81
2021/07/03 00:09:14;;;;;;;13.13;8.73;;;;;;;-144.13;100.00;64086.75;5044227;28;20059;-81
2021/07/03 00:11:40;;;;;;;12.90;8.75;;;;;;;-144.13;100.00;64086.75;5041362;28;20596;-81
2021/07/03 00:14:06;;;;;;;12.10;8.02;;;;;;;-144.13;100.00;64086.75;5039509;28;20149;-82
2021/07/03 00:16:31;;;;;;;10.35;7.68;;;;;;;-144.13;100.00;64086.75;5041796;28;20037;-83
2021/07/03 00:18:57;;;;;;;11.40;8.23;;;;;;;-144.13;100.00;64086.75;5032865;28;20021;-83
2021/07/03 00:21:22;;;;;;;15.60;8.30;;;;;;;-144.13;100.00;64086.75;5035678;28;20625;-83
2021/07/03 00:23:48;;;;;;;14.52;7.97;;;;;;;-144.13;100.00;64086.75;5038728;28;20045;-83
2021/07/03 00:26:14;;;;;;;12.93;7.80;;;;;;;-144.13;100.00;64086.75;5051462;28;20398;-83
2021/07/03 00:28:39;;;;;;;13.00;8.52;;;;;;;-144.13;100.00;64086.75;5035237;28;20120;-83
2021/07/03 00:31:04;;;;;;;14.15;7.80;;;;;;;-144.13;100.00;64086.75;5031645;28;20023;-83
2021/07/03 00:33:30;;;;;;;12.60;8.05;;;;;;;-144.13;100.00;64086.75;5031041;28;20040;-83
2021/07/03 00:35:55;;;;;;;11.35;7.25;;;;;;;-144.13;100.00;64086.75;5047001;28;20025;-83
2021/07/03 00:38:21;;;;;;;12.25;7.93;;;;;;;-144.13;100.00;64086.75;5032171;28;20029;-83
2021/07/03 00:40:46;;;;;;;12.80;7.43;;;;;;;-144.13;100.00;64086.75;5032665;28;20032;-83
2021/07/03 00:43:13;;;;;;;13.20;7.57;;;;;;;-144.13;100.00;64086.75;5039457;28;20533;-82
2021/07/03 00:45:38;;;;;;;11.93;7.50;;;;;;;-144.13;100.00;64086.75;5032351;28;20135;-83
2021/07/03 00:48:04;;;;;;;10.98;7.35;;;;;;;-144.13;100.00;64086.75;5031921;28;20108;-83
2021/07/03 00:50:31;;;;;;;10.63;7.10;;;;;;;-144.13;100.00;64086.75;5036352;28;20025;-83
2021/07/03 00:52:57;;;;;;;11.98;7.55;;;;;;;-144.13;100.00;64086.75;5049350;28;20035;-84
2021/07/03 00:55:23;;;;;;;11.77;7.65;;;;;;;-144.13;100.00;64086.75;5055133;28;20517;-84
2021/07/03 00:57:50;;;;;;;13.45;7.80;;;;;;;-144.13;100.00;64086.75;5043422;28;20032;-83
2021/07/03 01:00:16;;;;;;;10.15;7.72;;;;;;;-144.13;100.00;64086.75;5041952;28;20035;-83
2021/07/03 01:02:41;;;;;;;11.95;7.82;;;;;;;-144.13;100.00;64086.75;5048837;28;20021;-83
2021/07/03 01:05:08;;;;;;;10.48;8.10;;;;;;;-144.13;100.00;64086.75;5053350;28;20079;-82
2021/07/03 01:07:34;;;;;;;12.43;8.32;;;;;;;-144.13;100.00;64086.75;5040709;28;20043;-82
2021/07/03 01:10:00;;;;;;;15.40;9.25;;;;;;;-144.13;100.00;64086.75;5039094;28;21012;-83
2021/07/03 01:12:26;;;;;;;15.40;8.75;;;;;;;-144.13;100.00;64086.75;5039934;28;20032;-84
2021/07/03 01:14:51;;;;;;;16.17;9.07;;;;;;;-144.13;100.00;64086.75;5027292;28;20024;-83
2021/07/03 01:17:18;;;;;;;15.32;8.35;;;;;;;-144.13;100.00;64086.75;5033188;28;20047;-83
2021/07/03 01:19:45;;;;;;;14.60;9.48;;;;;;;-144.13;100.00;64086.75;5029698;28;20021;-83
2021/07/03 01:22:12;;;;;;;15.35;8.80;;;;;;;-144.13;100.00;64086.75;5035642;28;20025;-83
2021/07/03 01:24:39;;;;;;;14.88;8.48;;;;;;;-144.13;100.00;64086.75;5036964;28;20110;-83
2021/07/03 01:27:06;;;;;;;14.38;8.90;;;;;;;-144.13;100.00;64086.75;5042636;28;20021;-82
2021/07/03 01:29:33;;;;;;;14.30;9.65;;;;;;;-144.13;100.00;64086.75;5052543;28;20033;-82
2021/07/03 01:32:00;;;;;;;14.13;8.73;;;;;;;-144.13;100.00;64086.75;5035807;28;20048;-81
2021/07/03 01:34:28;;;;;;;14.75;10.20;;;;;;;-144.13;100.00;64086.75;5040651;28;20505;-81
2021/07/03 01:36:54;;;;;;;15.82;9.18;;;;;;;-144.13;100.00;64086.75;5061572;28;20031;-81
2021/07/03 01:39:21;;;;;;;14.77;9.35;;;;;;;-144.13;100.00;64086.75;5035851;28;20405;-82
2021/07/03 01:41:46;;;;;;;14.15;9.40;;;;;;;-144.13;100.00;64086.75;5034484;28;20036;-81
2021/07/03 01:44:12;;;;;;;15.07;9.10;;;;;;;-144.13;100.00;64086.75;5033548;28;20029;-81
2021/07/03 01:46:38;;;;;;;12.50;8.73;;;;;;;-144.13;100.00;64086.75;5044461;28;20044;-82
2021/07/03 01:49:05;;;;;;;16.35;9.70;;;;;;;-144.13;100.00;64086.75;5055625;28;20116;-81
2021/07/03 01:51:32;;;;;;;15.18;9.85;;;;;;;-144.13;100.00;64086.75;5037598;28;20071;-83
2021/07/03 01:53:58;;;;;;;15.57;10.15;;;;;;;-144.13;100.00;64086.75;5042766;22;22815;-54
2021/07/03 01:56:24;;;;;;;15.35;10.55;;;;;;;-144.13;100.00;64086.75;5033257;28;20029;-54
2021/07/03 01:58:49;;;;;;;15.73;10.82;;;;;;;-144.13;100.00;64086.75;5034911;28;20563;-53
2021/07/03 02:01:16;;;;;;;21.30;12.07;;;;;;;-144.13;100.00;64086.75;5038090;28;20025;-54
2021/07/03 02:03:41;;;;;;;19.95;11.88;;;;;;;-144.13;100.00;64086.75;5035072;28;20084;-54
2021/07/03 02:06:08;;;;;;;17.50;10.52;;;;;;;-144.13;100.00;64086.75;5035209;28;20432;-54
2021/07/03 02:11:03;;;;;;;18.15;10.90;;;;;;;-144.13;100.00;64086.75;5018685;28;20053;-52
2021/07/03 02:13:30;;;;;;;17.90;11.10;;;;;;;-144.13;100.00;64086.75;5022357;28;21991;-50
2021/07/03 02:15:56;;;;;;;15.98;10.27;;;;;;;-144.13;100.00;64086.75;5022044;28;20037;-49
2021/07/03 02:18:22;;;;;;;18.52;11.40;;;;;;;-144.13;100.00;64086.75;5020427;28;20087;-49
2021/07/03 02:20:48;;;;;;;19.80;11.18;;;;;;;-144.13;100.00;64086.75;4998080;28;20017;-49
2021/07/03 02:23:14;;;;;;;18.63;11.15;;;;;;;-144.13;100.00;64086.75;4997889;28;20031;-49
2021/07/03 02:25:40;;;;;;;17.77;11.50;;;;;;;-144.13;100.00;64086.75;4996901;28;20025;-50
2021/07/03 02:28:06;;;;;;;17.17;11.20;;;;;;;-144.13;100.00;64086.75;5001082;28;20045;-52
2021/07/03 02:30:32;;;;;;;18.75;12.13;;;;;;;-144.13;100.00;64086.75;5001161;28;20026;-51
2021/07/03 02:33:01;;;;;;;19.98;13.38;;;;;;;-144.13;100.00;64086.75;4996475;28;21229;-52
2021/07/03 02:35:27;;;;;;;21.10;12.82;;;;;;;-144.13;100.00;64086.75;4997278;28;20132;-50
2021/07/03 02:37:52;;;;;;;21.95;12.93;;;;;;;-144.13;100.00;64086.75;5000193;28;20121;-49
2021/07/03 02:40:19;;;;;;;19.60;11.75;;;;;;;-144.13;100.00;64086.75;4997640;28;20045;-50
2021/07/03 02:42:45;;;;;;;18.63;11.13;;;;;;;-144.13;100.00;64086.75;4997162;28;20034;-50
2021/07/03 02:45:13;;;;;;;19.10;11.93;;;;;;;-144.13;100.00;64086.75;4979644;28;20029;-50
2021/07/03 02:47:39;;;;;;;16.52;11.38;;;;;;;-144.13;100.00;64086.75;5001134;28;20031;-49
2021/07/03 02:50:07;;;;;;;17.75;11.25;;;;;;;-144.13;100.00;64086.75;4998755;28;20165;-49
2021/07/03 02:52:32;;;;;;;16.35;11.20;;;;;;;-144.13;100.00;64086.75;4998485;28;20037;-49
2021/07/03 02:54:58;;;;;;;19.02;11.30;;;;;;;-144.13;100.00;64086.75;4999435;28;20042;-49
2021/07/03 02:57:23;;;;;;;17.65;11.48;;;;;;;-144.13;100.00;64086.75;4997125;28;20389;-52
2021/07/03 02:59:49;;;;;;;17.25;11.48;;;;;;;-144.13;100.00;64086.75;4997386;28;20018;-52
2021/07/03 03:02:14;;;;;;;16.33;11.10;;;;;;;-144.13;100.00;64086.75;4995605;28;20305;-50
2021/07/03 03:04:40;;;;;;;17.42;10.57;;;;;;;-144.13;100.00;64086.75;4996236;28;20034;-50
2021/07/03 03:07:06;;;;;;;19.20;10.95;;;;;;;-144.13;100.00;64086.75;4997100;28;20584;-52
2021/07/03 03:09:31;;;;;;;17.27;12.23;;;;;;;-144.13;100.00;64086.75;4997708;28;20123;-50
2021/07/03 03:11:57;;;;;;;17.00;10.98;;;;;;;-144.13;100.00;64086.75;4994218;28;20616;-50
2021/07/03 03:14:24;;;;;;;16.90;11.50;;;;;;;-144.13;100.00;64086.75;4994963;28;20211;-50
2021/07/03 03:16:50;;;;;;;16.65;11.52;;;;;;;-144.13;100.00;64086.75;4997774;28;20026;-49
2021/07/03 03:19:15;;;;;;;18.00;10.60;;;;;;;-144.13;100.00;64086.75;4994775;28;20041;-50
2021/07/03 03:21:41;;;;;;;18.25;11.25;;;;;;;-144.13;100.00;64086.75;4995665;28;20476;-49
2021/07/03 03:24:06;;;;;;;20.98;11.20;;;;;;;-144.13;100.00;64086.75;4996625;28;20042;-49
2021/07/03 03:26:32;;;;;;;15.45;10.32;;;;;;;-144.13;100.00;64086.75;4995386;28;20110;-49
2021/07/03 03:28:57;;;;;;;16.48;11.43;;;;;;;-144.13;100.00;64086.75;5001682;28;20037;-49
2021/07/03 03:31:22;;;;;;;17.00;11.43;;;;;;;-144.13;100.00;64086.75;4996624;28;20026;-49
2021/07/03 03:33:48;;;;;;;19.02;10.55;;;;;;;-144.13;100.00;64086.75;4998158;28;20053;-49
2021/07/03 03:36:14;;;;;;;15.35;10.40;;;;;;;-144.13;100.00;64086.75;4997099;28;20045;-49
2021/07/03 03:38:40;;;;;;;15.00;9.80;;;;;;;-144.13;100.00;64086.75;4998842;28;20049;-50
2021/07/03 03:41:05;;;;;;;14.43;9.05;;;;;;;-144.13;100.00;64086.75;5000392;28;20030;-49
2021/07/03 03:43:31;;;;;;;15.80;10.13;;;;;;;-144.13;100.00;64086.75;4994587;28;20120;-51
2021/07/03 03:45:56;;;;;;;16.83;9.50;;;;;;;-144.13;100.00;64086.75;4995043;28;20034;-49
2021/07/03 03:48:22;;;;;;;15.23;10.10;;;;;;;-144.13;100.00;64086.75;4994559;28;20034;-49
2021/07/03 03:50:47;;;;;;;14.82;9.82;;;;;;;-144.13;100.00;64086.75;4997094;28;20033;-50
2021/07/03 03:53:13;;;;;;;15.63;9.55;;;;;;;-144.13;100.00;64086.75;4999367;28;20030;-49
2021/07/03 03:55:38;;;;;;;14.43;9.77;;;;;;;-144.13;100.00;64086.75;4996924;28;20152;-51
2021/07/03 03:58:04;;;;;;;14.95;9.23;;;;;;;-144.13;100.00;64086.75;4995731;28;20274;-50
2021/07/03 04:00:29;;;;;;;14.30;9.30;;;;;;;-144.13;100.00;64086.75;4997837;28;20022;-49
2021/07/03 04:02:55;;;;;;;13.82;9.20;;;;;;;-144.13;100.00;64086.75;4995451;28;20052;-50
2021/07/03 04:05:21;;;;;;;13.05;9.65;;;;;;;-144.13;100.00;64086.75;4997684;28;20140;-51
2021/07/03 04:07:46;;;;;;;12.25;8.35;;;;;;;-144.13;100.00;64086.75;4993479;28;20444;-52
2021/07/03 04:10:14;;;;;;;13.05;8.85;;;;;;;-144.13;100.00;64086.75;4998048;28;20036;-49
2021/07/03 04:12:40;;;;;;;12.68;8.98;;;;;;;-144.13;100.00;64086.75;4994294;28;20067;-49
2021/07/03 04:15:07;;;;;;;12.02;8.90;;;;;;;-144.13;100.00;64086.75;4996925;28;20030;-50
2021/07/03 04:17:33;;;;;;;13.13;8.80;;;;;;;-144.13;100.00;64086.75;4991311;28;20033;-50
2021/07/03 04:19:59;;;;;;;14.38;9.43;;;;;;;-144.13;100.00;64086.75;4997252;28;20079;-52
2021/07/03 04:22:25;;;;;;;13.02;8.48;;;;;;;-144.13;100.00;64086.75;4994200;28;20033;-52
2021/07/03 04:24:51;;;;;;;13.15;8.38;;;;;;;-144.13;100.00;64086.75;4993161;28;20035;-49
2021/07/03 04:27:16;;;;;;;13.57;8.98;;;;;;;-144.13;100.00;64086.75;4995529;28;20030;-52
2021/07/03 04:29:42;;;;;;;14.90;9.05;;;;;;;-144.13;100.00;64086.75;4999174;28;20022;-50
2021/07/03 04:32:08;;;;;;;14.55;8.93;;;;;;;-144.13;100.00;64086.75;4998626;28;20088;-49
2021/07/03 04:34:34;;;;;;;13.45;9.27;;;;;;;-144.13;100.00;64086.75;4996926;28;20033;-51
2021/07/03 04:37:00;;;;;;;12.60;8.95;;;;;;;-144.13;100.00;64086.75;4997087;28;20048;-51
2021/07/03 04:39:26;;;;;;;11.73;7.97;;;;;;;-144.13;100.00;64086.75;4994996;28;20455;-51
2021/07/03 04:41:53;;;;;;;14.73;8.82;;;;;;;-144.13;100.00;64086.75;4995532;28;20087;-50
2021/07/03 04:44:18;;;;;;;12.20;9.43;;;;;;;-144.13;100.00;64086.75;4996508;28;20418;-51
2021/07/03 04:46:45;;;;;;;14.05;8.93;;;;;;;-144.13;100.00;64086.75;4994561;28;20034;-52
2021/07/03 04:49:11;;;;;;;13.20;8.30;;;;;;;-144.13;100.00;64086.75;4998064;28;20038;-51
2021/07/03 04:51:37;;;;;;;13.93;8.73;;;;;;;-144.13;100.00;64086.75;4996027;28;20044;-50
2021/07/03 04:54:03;;;;;;;14.38;8.82;;;;;;;-144.13;100.00;64086.75;4994874;28;20076;-52
2021/07/03 04:56:29;;;;;;;17.42;9.02;;;;;;;-144.13;100.00;64086.75;4994976;28;20068;-49
2021/07/03 04:58:56;;;;;;;11.55;8.38;;;;;;;-144.13;100.00;64086.75;4995247;28;20058;-51
2021/07/03 05:01:21;;;;;;;13.95;8.30;;;;;;;-144.13;100.00;64086.75;4997235;28;20049;-52
2021/07/03 05:03:47;;;;;;;16.45;9.70;;;;;;;-144.13;100.00;64086.75;4992537;28;20545;-52
2021/07/03 05:06:13;;;;;;;14.13;8.80;;;;;;;-144.13;100.00;64086.75;4990855;28;20270;-54
2021/07/03 05:08:38;;;;;;;17.70;9.23;;;;;;;-144.13;100.00;64086.75;4990833;28;20128;-50
2021/07/03 05:11:04;;;;;;;12.73;8.30;;;;;;;-144.13;100.00;64086.75;4993966;28;20042;-50
2021/07/03 05:13:30;;;;;;;14.60;9.23;;;;;;;-144.13;100.00;64086.75;4994624;28;20034;-53
2021/07/03 05:15:55;;;;;;;11.00;8.38;;;;;;;-144.13;100.00;64086.75;4994934;28;20030;-50
2021/07/03 05:18:21;;;;;;;12.55;8.50;;;;;;;-144.13;100.00;64086.75;4995125;28;20045;-52
2021/07/03 05:20:46;;;;;;;11.57;8.35;;;;;;;-144.13;100.00;64086.75;4996495;28;20030;-50
2021/07/03 05:23:12;;;;;;;10.52;7.97;;;;;;;-144.13;100.00;64086.75;4995521;28;20081;-50
2021/07/03 05:25:40;;;;;;;12.05;7.45;;;;;;;-144.13;100.00;64086.75;4995240;28;20038;-50
2021/07/03 05:28:06;;;;;;;12.35;8.50;;;;;;;-144.13;100.00;64086.75;4994485;28;20036;-50
2021/07/03 05:30:31;;;;;;;11.35;7.60;;;;;;;-144.13;100.00;64086.75;4990811;28;20390;-50
2021/07/03 05:32:57;;;;;;;9.23;7.63;;;;;;;-144.13;100.00;64086.75;4999092;28;20030;-52
2021/07/03 05:35:22;;;;;;;10.13;7.20;;;;;;;-144.13;100.00;64086.75;4992724;28;20113;-54
2021/07/03 05:37:48;;;;;;;10.85;6.68;;;;;;;-144.13;100.00;64086.75;4994804;28;20120;-52
2021/07/03 05:40:16;;;;;;;11.05;6.65;;;;;;;-144.13;100.00;64086.75;4995322;28;20061;-52
2021/07/03 05:42:41;;;;;;;7.15;5.40;;;;;;;-144.13;100.00;64086.75;4991910;28;20041;-51
2021/07/03 05:45:08;;;;;;;8.38;5.97;;;;;;;-144.13;100.00;64086.75;4991219;28;20037;-51
2021/07/03 05:47:33;;;;;;;9.73;6.75;;;;;;;-144.13;100.00;64086.75;4993478;28;20041;-53
2021/07/03 05:49:59;;;;;;;9.70;6.30;;;;;;;-144.13;100.00;64086.75;4995535;28;20022;-53
2021/07/03 05:52:24;;;;;;;10.13;6.35;;;;;;;-144.13;100.00;64086.75;4991726;28;20382;-50
2021/07/03 05:54:50;;;;;;;9.38;5.93;;;;;;;-144.13;100.00;64086.75;4993864;28;20060;-51
2021/07/03 05:57:15;;;;;;;6.95;5.85;;;;;;;-144.13;100.00;64086.75;4993655;28;20113;-52
2021/07/03 05:59:41;;;;;;;8.48;5.55;;;;;;;-144.13;100.00;64086.75;4993192;28;20396;-50
2021/07/03 06:02:09;;;;;;;11.18;6.63;;;;;;;-144.13;100.00;64086.75;4997963;28;20041;-50
2021/07/03 06:04:35;;;;;;;6.28;4.72;;;;;;;-144.13;100.00;64086.75;4995197;28;20084;-50
2021/07/03 06:07:00;;;;;;;8.65;5.07;;;;;;;-144.13;100.00;64086.75;4993575;28;20492;-50
2021/07/03 06:09:26;;;;;;;8.63;5.65;;;;;;;-144.13;100.00;64086.75;4990465;28;20480;-51
2021/07/03 06:11:51;;;;;;;7.60;5.15;;;;;;;-144.13;100.00;64086.75;4999310;28;20053;-53
2021/07/03 06:14:17;;;;;;;8.15;4.72;;;;;;;-144.13;100.00;64086.75;4997368;28;20499;-51
2021/07/03 06:16:43;;;;;;;8.85;5.32;;;;;;;-144.13;100.00;64086.75;4996418;28;20057;-50
2021/07/03 06:19:09;;;;;;;8.05;4.88;;;;;;;-144.13;100.00;64086.75;4999516;28;20484;-50
2021/07/03 06:21:35;;;;;;;9.13;4.63;;;;;;;-144.13;100.00;64086.75;4992460;28;20030;-50
2021/07/03 06:24:00;;;;;;;7.82;5.40;;;;;;;-144.13;100.00;64086.75;4995162;28;20565;-51
2021/07/03 06:26:26;;;;;;;9.73;5.60;;;;;;;-144.13;100.00;64086.75;4992029;28;20466;-51
2021/07/03 06:28:52;;;;;;;7.90;5.43;;;;;;;-144.13;100.00;64086.75;4997242;28;20026;-51
2021/07/03 06:31:17;;;;;;;10.85;5.63;;;;;;;-144.13;100.00;64086.75;4995335;28;20028;-50
2021/07/03 06:33:43;;;;;;;8.00;5.65;;;;;;;-144.13;100.00;64086.75;4995784;28;20379;-53
2021/07/03 06:36:08;;;;;;;9.18;5.40;;;;;;;-144.13;100.00;64086.75;4997179;28;20034;-50
2021/07/03 06:38:34;;;;;;;8.13;5.28;;;;;;;-144.13;100.00;64086.75;4995238;28;20048;-50
2021/07/03 06:40:59;;;;;;;5.60;4.30;;;;;;;-144.13;100.00;64086.75;4996725;28;20096;-52
2021/07/03 06:43:25;;;;;;;6.40;4.47;;;;;;;-144.13;100.00;64086.75;4995913;28;20393;-50
2021/07/03 06:45:50;;;;;;;9.55;5.18;;;;;;;-144.13;100.00;64086.75;4997254;28;20030;-52
2021/07/03 06:48:16;;;;;;;8.70;5.18;;;;;;;-144.13;100.00;64086.75;4993888;28;20060;-51
2021/07/03 06:50:41;;;;;;;7.68;4.65;;;;;;;-144.13;100.00;64086.75;4997659;28;20014;-51
2021/07/03 06:53:07;;;;;;;7.63;5.05;;;;;;;-144.13;100.00;64086.75;4994623;28;20748;-53
2021/07/03 06:55:33;;;;;;;6.38;4.82;;;;;;;-144.13;100.00;64086.75;4999574;28;20077;-51
2021/07/03 06:57:58;;;;;;;7.22;4.55;;;;;;;-144.13;100.00;64086.75;5002281;28;20045;-50
2021/07/03 07:00:24;;;;;;;6.88;4.97;;;;;;;-144.13;100.00;64086.75;4995891;28;20030;-53
2021/07/03 07:02:50;;;;;;;6.45;5.50;;;;;;;-144.13;100.00;64086.75;4999872;28;20029;-54
2021/07/03 07:05:15;;;;;;;7.90;4.95;;;;;;;-144.13;100.00;64086.75;4995459;28;20068;-54
2021/07/03 07:07:41;;;;;;;10.73;4.60;;;;;;;-144.13;100.00;64086.75;4994224;28;20244;-54
2021/07/03 07:10:07;;;;;;;5.47;4.22;;;;;;;-144.13;100.00;64086.75;4995115;28;20052;-50
2021/07/03 07:12:33;;;;;;;5.47;3.85;;;;;;;-144.13;100.00;64086.75;4996793;28;20167;-54
2021/07/03 07:14:58;;;;;;;5.28;4.45;;;;;;;-144.13;100.00;64086.75;4999108;28;20048;-53
2021/07/03 07:17:24;;;;;;;8.30;4.43;;;;;;;-144.13;100.00;64086.75;4996991;28;20037;-54
2021/07/03 07:19:49;;;;;;;6.57;4.00;;;;;;;-144.13;100.00;64086.75;4999036;28;20026;-51
2021/07/03 07:22:15;;;;;;;7.18;3.70;;;;;;;-144.13;100.00;64086.75;4994143;28;20038;-53
2021/07/03 07:24:41;;;;;;;6.97;3.63;;;;;;;-144.13;100.00;64086.75;5000013;28;20026;-54
2021/07/03 07:27:07;;;;;;;5.53;3.33;;;;;;;-144.13;100.00;64086.75;4997762;28;20030;-54
2021/07/03 07:29:33;;;;;;;5.18;3.70;;;;;;;-144.13;100.00;64086.75;5026658;22;20073;-70
2021/07/03 07:31:59;;;;;;;4.57;3.72;;;;;;;-144.13;100.00;64086.75;5014999;28;22269;-70
2021/07/03 07:34:24;;;;;;;4.85;3.40;;;;;;;-144.13;100.00;64086.75;5001477;28;20033;-69
2021/07/03 07:36:50;;;;;;;4.25;3.38;;;;;;;-144.13;100.00;64086.75;5013136;28;20032;-69
2021/07/03 07:39:16;;;;;;;4.55;3.05;;;;;;;-144.13;100.00;64086.75;5021363;28;20025;-70
2021/07/03 07:41:41;;;;;;;8.07;3.90;;;;;;;-144.13;100.00;64086.75;5021278;28;20545;-69
2021/07/03 07:44:07;;;;;;;5.07;3.38;;;;;;;-144.13;100.00;64086.75;5013701;28;20026;-70
2021/07/03 07:46:32;;;;;;;5.63;3.80;;;;;;;-144.13;100.00;64086.75;5004363;28;20509;-70
2021/07/03 07:48:59;;;;;;;4.40;3.45;;;;;;;-144.13;100.00;64086.75;5011836;28;20989;-69
2021/07/03 07:51:25;;;;;;;5.53;3.50;;;;;;;-144.13;100.00;64086.75;5020023;28;20032;-70
2021/07/03 07:53:50;;;;;;;4.00;3.40;;;;;;;-144.13;100.00;64086.75;4997141;28;20417;-70
2021/07/03 07:56:18;;;;;;;5.45;3.33;;;;;;;-144.13;100.00;64086.75;5014351;28;20033;-69
2021/07/03 07:58:44;;;;;;;3.85;2.80;;;;;;;-144.13;100.00;64086.75;5019629;28;20033;-69
2021/07/03 08:01:13;;;;;;;5.90;3.15;;;;;;;-144.13;100.00;64086.75;5011704;28;20633;-70
2021/07/03 08:03:38;;;;;;;4.00;2.83;;;;;;;-144.13;100.00;64086.75;5005031;28;20040;-69
2021/07/03 08:06:04;;;;;;;4.82;3.17;;;;;;;-144.13;100.00;64086.75;5015270;28;20025;-69
2021/07/03 08:08:29;;;;;;;4.80;2.83;;;;;;;-144.13;100.00;64086.75;5010035;28;20030;-69
2021/07/03 08:10:55;;;;;;;6.65;3.50;;;;;;;-144.13;100.00;64086.75;5015100;28;20079;-69
2021/07/03 08:13:21;;;;;;;5.57;3.63;;;;;;;-144.13;100.00;64086.75;5015804;28;20036;-70
2021/07/03 08:15:46;;;;;;;6.10;3.20;;;;;;;-144.13;100.00;64086.75;5015307;28;20087;-70
2021/07/03 08:18:12;;;;;;;3.13;2.65;;;;;;;-144.13;100.00;64086.75;5016167;28;20068;-69
2021/07/03 08:20:37;;;;;;;5.40;3.40;;;;;;;-144.13;100.00;64086.75;5015148;28;20116;-70
2021/07/03 08:23:03;;;;;;;6.63;3.88;;;;;;;-144.13;100.00;64086.75;5015970;28;20060;-69
2021/07/03 08:25:29;;;;;;;4.25;3.53;;;;;;;-144.13;100.00;64086.75;5013209;28;20119;-69
2021/07/03 08:27:55;;;;;;;5.65;3.58;;;;;;;-144.13;100.00;64086.75;5015226;28;20025;-69
2021/07/03 08:30:21;;;;;;;5.78;4.18;;;;;;;-144.13;100.00;64086.75;4999867;28;20026;-69
2021/07/03 08:32:47;;;;;;;5.32;3.67;;;;;;;-144.13;100.00;64086.75;5013351;28;20044;-70
2021/07/03 08:35:15;;;;;;;4.63;3.78;;;;;;;-144.13;100.00;64086.75;5012727;28;20035;-69
2021/07/03 08:37:41;;;;;;;7.78;4.60;;;;;;;-144.13;100.00;64086.75;5016532;28;20029;-69
2021/07/03 08:40:08;;;;;;;6.45;4.35;;;;;;;-144.13;100.00;64086.75;5015815;28;20040;-69
2021/07/03 08:42:34;;;;;;;5.95;4.10;;;;;;;-144.13;100.00;64086.75;5014498;28;20064;-69
2021/07/03 08:45:00;;;;;;;5.35;4.30;;;;;;;-144.13;100.00;64086.75;5016912;28;20021;-69
2021/07/03 08:47:25;;;;;;;6.68;4.38;;;;;;;-144.13;100.00;64086.75;5000174;28;20033;-71
2021/07/03 08:49:54;;;;;;;5.57;4.57;;;;;;;-144.13;100.00;64086.75;5013121;28;20104;-71
2021/07/03 08:52:20;;;;;;;5.30;4.25;;;;;;;-144.13;100.00;64086.75;5016299;28;20391;-71
2021/07/03 08:54:57;;;;;;;6.68;4.03;;;;;;;-144.13;100.00;64086.75;5000650;28;20033;-71
2021/07/03 08:57:22;;;;;;;5.85;4.32;;;;;;;-144.13;100.00;64086.75;5015134;28;20064;-71
2021/07/03 08:59:55;;;;;;;6.88;4.13;;;;;;;-144.13;100.00;64086.75;5014280;28;20025;-71
2021/07/03 09:02:32;;;;;;;5.25;4.60;;;;;;;-144.13;100.00;64086.75;5011048;28;20029;-71
2021/07/03 09:04:57;;;;;;;6.50;4.05;;;;;;;-144.13;100.00;64086.75;5029574;28;20048;-71
2021/07/03 09:07:23;;;;;;;5.82;4.25;;;;;;;-144.13;100.00;64086.75;5011780;28;20644;-71
2021/07/03 09:09:52;;;;;;;4.97;3.95;;;;;;;-144.13;100.00;64086.75;5015155;28;20072;-70
2021/07/03 09:12:37;;;;;;;6.80;4.22;;;;;;;-144.13;100.00;64086.75;5017484;28;20109;-71
2021/07/03 09:15:13;;;;;;;5.60;3.90;;;;;;;-144.13;100.00;64086.75;4999487;28;20036;-70
2021/07/03 09:18:09;;;;;;;5.47;3.67;;;;;;;-144.13;100.00;64086.75;5015546;28;20287;-71
2021/07/03 09:20:37;;;;;;;5.13;4.25;;;;;;;-144.13;100.00;64086.75;5013686;28;20151;-71
2021/07/03 09:23:10;;;;;;;5.70;3.47;;;;;;;-144.13;100.00;64086.75;5015123;28;20044;-70
2021/07/03 09:25:38;;;;;;;9.05;3.70;;;;;;;-144.13;100.00;64086.75;5016220;28;20491;-71
2021/07/03 09:28:12;;;;;;;6.65;3.90;;;;;;;-144.13;100.00;64086.75;5014456;28;20083;-71
2021/07/03 09:30:39;;;;;;;5.82;3.65;;;;;;;-144.13;100.00;64086.75;5015775;28;20029;-71
2021/07/03 09:33:05;;;;;;;8.48;4.35;;;;;;;-144.13;100.00;64086.75;5008597;28;20034;-70
2021/07/03 09:35:31;;;;;;;5.47;4.03;;;;;;;-144.13;100.00;64086.75;5009320;28;20030;-71
2021/07/03 09:38:01;;;;;;;6.60;3.83;;;;;;;-144.13;100.00;64086.75;5007473;28;20040;-70
2021/07/03 09:40:32;;;;;;;5.65;4.22;;;;;;;-144.13;100.00;64086.75;5011632;28;20211;-70
2021/07/03 09:43:11;;;;;;;5.30;4.40;;;;;;;-144.13;100.00;64086.75;5010923;28;20390;-70
2021/07/03 09:45:39;;;;;;;6.28;4.47;;;;;;;-144.13;100.00;64086.75;5019100;28;20030;-71
2021/07/03 09:48:05;;;;;;;7.63;4.10;;;;;;;-144.13;100.00;64086.75;5019116;28;20030;-72
2021/07/03 09:50:31;;;;;;;8.65;4.78;;;;;;;-144.13;100.00;64086.75;5021488;28;22445;-71
2021/07/03 09:53:00;;;;;;;5.65;4.32;;;;;;;-144.13;100.00;64086.75;5018874;28;20029;-71
2021/07/03 09:55:27;;;;;;;6.32;4.35;;;;;;;-144.13;100.00;64086.75;5020171;28;20474;-71
2021/07/03 09:57:52;;;;;;;7.32;3.70;;;;;;;-144.13;100.00;64086.75;5019594;28;20112;-71
2021/07/03 10:00:18;;;;;;;3.95;3.45;;;;;;;-144.13;100.00;64086.75;5017427;28;20184;-71
2021/07/03 10:02:44;;;;;;;6.72;4.30;;;;;;;-144.13;100.00;64086.75;5020563;28;20025;-71
2021/07/03 10:05:10;;;;;;;9.15;4.13;;;;;;;-144.13;100.00;64086.75;5023211;28;20387;-71
2021/07/03 10:07:46;;;;;;;6.18;4.63;;;;;;;-144.13;100.00;64086.75;5018426;28;20057;-71
2021/07/03 10:10:16;;;;;;;5.63;4.65;;;;;;;-144.13;100.00;64086.75;5011004;28;20026;-71
2021/07/03 10:12:46;;;;;;;6.72;4.50;;;;;;;-144.13;100.00;64086.75;5019175;28;20029;-71
2021/07/03 10:15:13;;;;;;;5.50;4.10;;;;;;;-144.13;100.00;64086.75;5020950;28;20512;-70
2021/07/03 10:17:39;;;;;;;6.28;4.57;;;;;;;-144.13;100.00;64086.75;5022427;28;20324;-71
2021/07/03 10:20:13;;;;;;;4.55;4.15;;;;;;;-144.13;100.00;64086.75;5021048;28;20021;-71
2021/07/03 10:22:38;;;;;;;5.70;4.38;;;;;;;-144.13;100.00;64086.75;5015069;28;20658;-71
2021/07/03 10:25:10;;;;;;;6.97;4.43;;;;;;;-144.13;100.00;64086.75;5017880;28;20050;-71
2021/07/03 10:27:36;;;;;;;5.72;4.18;;;;;;;-144.13;100.00;64086.75;5016554;28;20063;-70
2021/07/03 10:30:06;;;;;;;6.28;4.40;;;;;;;-144.13;100.00;64086.75;5016186;28;20379;-71
2021/07/03 10:32:34;;;;;;;5.38;4.45;;;;;;;-144.13;100.00;64086.75;5028085;28;20129;-71
2021/07/03 10:35:15;;;;;;;7.20;4.90;;;;;;;-144.13;100.00;64086.75;5007964;28;20041;-72
2021/07/03 10:37:42;;;;;;;5.28;4.38;;;;;;;-144.13;100.00;64086.75;5017227;28;20162;-72
2021/07/03 10:40:34;;;;;;;6.82;3.97;;;;;;;-144.13;100.00;64086.75;5013596;28;20055;-71
2021/07/03 10:43:08;;;;;;;7.93;4.13;;;;;;;-144.13;100.00;64086.75;5015298;28;20124;-71
2021/07/03 10:45:47;;;;;;;8.98;4.20;;;;;;;-144.13;100.00;64086.75;5021781;28;20151;-71
2021/07/03 10:48:29;;;;;;;5.68;3.85;;;;;;;-144.13;100.00;64086.75;5020491;28;20056;-72
2021/07/03 10:50:57;;;;;;;7.32;3.90;;;;;;;-144.13;100.00;64086.75;5017712;28;20088;-72
2021/07/03 10:53:26;;;;;;;8.70;4.18;;;;;;;-144.13;100.00;64086.75;5018367;28;20073;-71
2021/07/03 10:55:53;;;;;;;4.35;3.30;;;;;;;-144.13;100.00;64086.75;5003357;28;20034;-71
2021/07/03 10:58:20;;;;;;;7.63;3.92;;;;;;;-144.13;100.00;64086.75;5022975;28;20155;-71
2021/07/03 11:00:51;;;;;;;4.65;3.92;;;;;;;-144.13;100.00;64086.75;5014088;28;20167;-71
2021/07/03 11:03:25;;;;;;;5.55;4.40;;;;;;;-144.13;100.00;64086.75;5024285;28;20031;-71
2021/07/03 11:05:51;;;;;;;;;;;;;;;-144.13;100.00;64086.75;5015749;28;20036;-71